Time;durP1;ratioP1;P1;durP2;ratioP2;P2;SDS_P1;SDS_P2;PMS_P1;PMS_P2;Temp;Humidity;BMP_temperature;BMP_pressure;BME280_temperature;BME280_humidity;BME280_pressure;Samples;Min_cycle;Max_cycle;Signal;HPM_P1;HPM_P2
2023/02/13 00:02:07;;;;;;;5.07;2.63;;;9.20;79.40;;;;;;5029465;28;20021;-67
2023/02/13 00:04:33;;;;;;;5.68;2.50;;;9.20;79.40;;;;;;5031869;28;20439;-67
2023/02/13 00:06:59;;;;;;;6.72;2.53;;;9.20;79.30;;;;;;5030658;28;20029;-67
2023/02/13 00:09:25;;;;;;;7.13;2.88;;;9.30;79.20;;;;;;5031144;28;20028;-67
2023/02/13 00:11:50;;;;;;;5.78;2.47;;;9.30;79.10;;;;;;5031061;28;20478;-67
2023/02/13 00:14:16;;;;;;;6.55;2.67;;;9.30;79.00;;;;;;5029739;28;20163;-68
2023/02/13 00:16:41;;;;;;;6.72;2.38;;;9.30;79.00;;;;;;5030640;28;20048;-67
2023/02/13 00:19:07;;;;;;;6.05;2.60;;;9.30;78.90;;;;;;5031204;28;20041;-67
2023/02/13 00:21:33;;;;;;;6.85;2.50;;;9.30;78.80;;;;;;5031410;28;20044;-68
2023/02/13 00:23:58;;;;;;;4.78;2.33;;;9.30;78.90;;;;;;5031662;28;20029;-67
2023/02/13 00:26:24;;;;;;;6.50;2.65;;;9.30;78.90;;;;;;5030836;28;20134;-67
2023/02/13 00:28:49;;;;;;;5.35;2.60;;;9.30;78.90;;;;;;5030879;28;20037;-67
2023/02/13 00:31:20;;;;;;;6.65;2.42;;;9.30;78.90;;;;;;5029440;28;20033;-67
2023/02/13 00:33:46;;;;;;;7.60;3.25;;;9.30;78.90;;;;;;5031081;28;20052;-67
2023/02/13 00:36:15;;;;;;;6.60;2.60;;;9.30;79.50;;;;;;5028454;28;20171;-67
2023/02/13 00:38:41;;;;;;;10.88;3.85;;;9.20;78.90;;;;;;5031065;28;20022;-68
2023/02/13 00:41:08;;;;;;;8.13;3.60;;;9.10;78.90;;;;;;5030771;28;20515;-68
2023/02/13 00:43:34;;;;;;;7.50;3.53;;;9.10;79.10;;;;;;5030304;28;20069;-68
2023/02/13 00:46:00;;;;;;;7.78;3.50;;;9.00;79.30;;;;;;5030575;28;20029;-68
2023/02/13 00:48:28;;;;;;;6.60;2.60;;;9.10;79.40;;;;;;5029297;28;20032;-68
2023/02/13 00:50:53;;;;;;;6.10;2.55;;;9.10;79.40;;;;;;5030740;28;20038;-67
2023/02/13 00:53:20;;;;;;;4.70;2.35;;;9.10;79.30;;;;;;5030518;28;20040;-67
2023/02/13 00:55:46;;;;;;;7.03;2.83;;;9.20;79.20;;;;;;5030144;28;20075;-68
2023/02/13 00:58:12;;;;;;;6.47;2.05;;;9.20;79.10;;;;;;5029930;28;20606;-68
2023/02/13 01:00:38;;;;;;;8.30;3.47;;;9.20;78.90;;;;;;5030406;28;20100;-68
2023/02/13 01:03:04;;;;;;;8.10;3.72;;;9.10;79.00;;;;;;5030162;28;20477;-68
2023/02/13 01:05:29;;;;;;;8.85;3.45;;;9.10;79.10;;;;;;5030682;28;20022;-67
2023/02/13 01:07:55;;;;;;;8.30;4.25;;;9.00;79.30;;;;;;5030042;28;20111;-68
2023/02/13 01:10:21;;;;;;;9.20;3.83;;;9.00;79.50;;;;;;5030330;28;20037;-67
2023/02/13 01:12:46;;;;;;;5.28;2.63;;;9.00;79.50;;;;;;5030062;28;20065;-67
2023/02/13 01:15:12;;;;;;;10.55;3.85;;;9.10;79.40;;;;;;5029867;28;20113;-67
2023/02/13 01:17:40;;;;;;;7.07;3.15;;;9.00;79.40;;;;;;5029733;28;20025;-67
2023/02/13 01:20:08;;;;;;;7.55;2.78;;;9.00;79.40;;;;;;5029714;28;20072;-67
2023/02/13 01:22:34;;;;;;;4.72;2.20;;;9.10;79.40;;;;;;5029773;28;20025;-67
2023/02/13 01:24:59;;;;;;;5.38;2.33;;;9.10;79.30;;;;;;5029798;28;20025;-67
2023/02/13 01:27:27;;;;;;;7.10;2.60;;;9.10;79.20;;;;;;5028400;28;20064;-68
2023/02/13 01:29:53;;;;;;;6.50;2.90;;;9.20;79.20;;;;;;5029799;28;20043;-68
2023/02/13 01:32:18;;;;;;;5.88;2.50;;;9.10;79.10;;;;;;5029551;28;20403;-67
2023/02/13 01:34:44;;;;;;;6.85;2.97;;;9.10;79.10;;;;;;5030165;28;20044;-68
2023/02/13 01:37:09;;;;;;;5.80;2.55;;;9.10;79.30;;;;;;5028208;28;20384;-68
2023/02/13 01:39:35;;;;;;;7.95;3.25;;;9.10;79.30;;;;;;5028293;28;20395;-68
2023/02/13 01:42:01;;;;;;;7.25;2.90;;;9.10;79.30;;;;;;5029462;28;20021;-68
2023/02/13 01:45:06;;;;;;;4.88;2.53;;;9.10;79.30;;;;;;5030031;28;20071;-67
2023/02/13 01:47:45;;;;;;;5.75;2.40;;;9.20;79.40;;;;;;5022733;28;20053;-67
2023/02/13 01:50:14;;;;;;;5.63;2.38;;;9.20;79.30;;;;;;5027703;28;20112;-67
2023/02/13 01:52:47;;;;;;;8.15;2.80;;;9.10;79.30;;;;;;5029282;28;20025;-67
2023/02/13 01:55:14;;;;;;;5.80;3.15;;;9.20;79.40;;;;;;5029324;28;20029;-66
2023/02/13 01:57:42;;;;;;;6.10;2.53;;;9.10;79.30;;;;;;5029541;28;20029;-66
2023/02/13 02:00:11;;;;;;;5.40;2.60;;;9.20;79.40;;;;;;5029495;28;20022;-67
2023/02/13 02:02:43;;;;;;;4.50;2.33;;;9.20;79.40;;;;;;5027077;28;20017;-67
2023/02/13 02:05:09;;;;;;;7.47;2.90;;;9.10;79.30;;;;;;5029748;28;20020;-67
2023/02/13 02:07:36;;;;;;;4.88;2.47;;;9.10;79.40;;;;;;5027709;28;20282;-67
2023/02/13 02:10:07;;;;;;;6.60;2.78;;;9.10;79.50;;;;;;5029205;28;20049;-67
2023/02/13 02:13:00;;;;;;;6.03;2.95;;;9.10;79.50;;;;;;5027729;28;20480;-67
2023/02/13 02:15:27;;;;;;;8.73;4.13;;;9.10;79.50;;;;;;5028369;28;20029;-67
2023/02/13 02:17:52;;;;;;;8.45;2.92;;;9.00;79.40;;;;;;5029088;28;20029;-66
2023/02/13 02:20:47;;;;;;;8.93;3.88;;;9.00;79.70;;;;;;5028776;28;20029;-67
2023/02/13 02:23:30;;;;;;;8.95;3.70;;;8.90;80.50;;;;;;5026264;28;20561;-67
2023/02/13 02:26:20;;;;;;;7.93;3.03;;;8.90;80.10;;;;;;5028877;28;20049;-67
2023/02/13 02:29:29;;;;;;;9.18;3.58;;;9.00;80.10;;;;;;5024046;28;20037;-67
2023/02/13 02:32:16;;;;;;;8.88;3.25;;;8.90;80.10;;;;;;5026712;28;20548;-67
2023/02/13 02:35:08;;;;;;;10.43;3.95;;;8.90;80.20;;;;;;5025357;28;20029;-67
2023/02/13 02:38:15;;;;;;;8.05;3.50;;;8.80;80.40;;;;;;5025299;28;20029;-68
2023/02/13 02:41:07;;;;;;;9.00;3.90;;;8.70;80.40;;;;;;5026272;28;20033;-68
2023/02/13 02:43:55;;;;;;;8.30;3.92;;;8.80;80.60;;;;;;5022539;28;20161;-68
2023/02/13 02:46:36;;;;;;;12.38;4.30;;;8.80;80.60;;;;;;5028131;28;20099;-68
2023/02/13 02:52:14;;;;;;;13.02;5.05;;;8.80;80.70;;;;;;5028574;28;20400;-67
2023/02/13 02:55:05;;;;;;;8.98;3.60;;;8.80;80.70;;;;;;5025462;28;20033;-68
2023/02/13 03:06:16;;;;;;;8.38;3.53;;;8.80;80.80;;;;;;5020887;28;20043;-67
2023/02/13 03:14:24;;;;;;;10.40;4.45;;;8.70;81.20;;;;;;5027703;28;20068;-67
2023/02/13 03:22:59;;;;;;;12.43;4.32;;;8.60;81.40;;;;;;5025932;28;20083;-67
2023/02/13 03:26:02;;;;;;;12.32;4.78;;;8.70;81.40;;;;;;5028457;28;20031;-68
2023/02/13 03:32:00;;;;;;;9.02;3.78;;;8.70;81.40;;;;;;5022387;28;20152;-67
2023/02/13 03:37:53;;;;;;;7.63;3.25;;;8.70;81.30;;;;;;5026594;28;20136;-68
2023/02/13 03:41:17;;;;;;;7.07;2.85;;;8.80;81.30;;;;;;5028133;28;20045;-68
2023/02/13 03:43:32;;;;;;;7.50;3.08;;;8.90;81.90;;;;;;5026577;28;20036;-68
2023/02/13 03:46:01;;;;;;;8.00;2.80;;;8.90;81.10;;;;;;5028260;28;20380;-67
2023/02/13 03:51:22;;;;;;;6.80;3.05;;;8.90;81.00;;;;;;5032037;28;20665;-67
2023/02/13 03:53:53;;;;;;;8.20;3.30;;;8.90;81.00;;;;;;5032172;28;20056;-67
2023/02/13 03:59:14;;;;;;;7.63;3.22;;;9.00;81.10;;;;;;5029245;28;20076;-67
2023/02/13 04:01:52;;;;;;;8.48;3.22;;;8.90;81.10;;;;;;5031371;28;20026;-67
2023/02/13 04:04:31;;;;;;;7.95;3.33;;;9.00;81.20;;;;;;5030946;28;20029;-67
2023/02/13 04:07:28;;;;;;;8.90;4.05;;;8.90;81.80;;;;;;5030262;28;20112;-67
2023/02/13 04:09:55;;;;;;;10.05;4.13;;;8.90;81.30;;;;;;5028922;28;20060;-67
2023/02/13 04:12:32;;;;;;;8.20;3.28;;;8.90;81.40;;;;;;5031172;28;20498;-68
2023/02/13 04:15:22;;;;;;;7.40;3.38;;;9.00;81.40;;;;;;5031385;28;20029;-68
2023/02/13 04:17:54;;;;;;;4.85;2.70;;;9.10;81.40;;;;;;5028941;28;20049;-68
2023/02/13 04:20:19;;;;;;;5.57;3.28;;;9.10;81.10;;;;;;5030983;28;20029;-68
2023/02/13 04:22:47;;;;;;;6.60;2.95;;;9.10;81.00;;;;;;5031363;28;20550;-68
2023/02/13 04:25:14;;;;;;;7.60;2.97;;;9.10;81.10;;;;;;5030789;28;20108;-68
2023/02/13 04:27:40;;;;;;;8.48;4.10;;;9.10;81.10;;;;;;5031092;28;20427;-70
2023/02/13 04:30:06;;;;;;;6.80;3.25;;;9.10;81.20;;;;;;5030579;28;20018;-68
2023/02/13 04:32:32;;;;;;;9.02;4.00;;;9.00;81.20;;;;;;5030875;28;20030;-67
2023/02/13 04:34:58;;;;;;;8.07;3.65;;;9.00;81.20;;;;;;5030805;28;20028;-67
2023/02/13 04:37:23;;;;;;;8.13;3.50;;;9.00;81.40;;;;;;5030582;28;20034;-68
2023/02/13 04:39:49;;;;;;;7.60;2.60;;;9.00;81.40;;;;;;5030002;28;20025;-67
2023/02/13 04:42:14;;;;;;;6.55;2.80;;;9.10;81.30;;;;;;5030712;28;20155;-67
2023/02/13 04:44:40;;;;;;;7.03;2.97;;;9.10;81.30;;;;;;5026930;28;20053;-67
2023/02/13 04:47:05;;;;;;;9.85;4.18;;;9.10;81.30;;;;;;5030517;28;20026;-67
2023/02/13 04:49:31;;;;;;;8.82;3.80;;;9.00;81.40;;;;;;5027201;28;20033;-67
2023/02/13 04:51:56;;;;;;;8.10;3.47;;;9.10;81.60;;;;;;5030034;28;20029;-67
2023/02/13 04:54:22;;;;;;;7.63;3.33;;;9.10;81.50;;;;;;5030001;28;20051;-67
2023/02/13 04:56:47;;;;;;;9.73;3.05;;;9.10;81.50;;;;;;5030037;28;20030;-67
2023/02/13 04:59:13;;;;;;;8.18;3.53;;;9.10;81.50;;;;;;5029901;28;20032;-67
2023/02/13 05:01:39;;;;;;;9.40;4.13;;;9.00;81.50;;;;;;5028262;28;20036;-67
2023/02/13 05:04:04;;;;;;;12.98;5.07;;;9.00;81.60;;;;;;5030663;28;20017;-67
2023/02/13 05:06:30;;;;;;;8.50;3.78;;;9.00;81.70;;;;;;5029243;28;20237;-67
2023/02/13 05:08:55;;;;;;;8.68;3.47;;;9.00;81.80;;;;;;5029670;28;20017;-67
2023/02/13 05:11:21;;;;;;;6.68;2.70;;;9.00;81.70;;;;;;5030018;28;20037;-67
2023/02/13 05:13:46;;;;;;;6.30;3.10;;;9.10;81.60;;;;;;5029833;28;20032;-67
2023/02/13 05:16:12;;;;;;;9.05;4.32;;;9.00;81.60;;;;;;5030058;28;20033;-67
2023/02/13 05:18:37;;;;;;;6.43;3.03;;;9.10;81.70;;;;;;5029954;28;20084;-67
2023/02/13 05:23:58;;;;;;;6.78;3.30;;;9.00;81.60;;;;;;5021308;28;20091;-67
2023/02/13 05:26:23;;;;;;;12.13;3.80;;;9.10;81.70;;;;;;5043101;28;20025;-67
2023/02/13 05:31:33;;;;;;;8.15;3.15;;;9.10;81.70;;;;;;5022328;28;20040;-67
2023/02/13 05:33:58;;;;;;;6.90;3.28;;;9.10;82.30;;;;;;5028868;28;20108;-67
2023/02/13 05:36:24;;;;;;;6.13;2.80;;;9.10;81.60;;;;;;5028950;28;20403;-67
2023/02/13 05:38:49;;;;;;;7.43;3.10;;;9.10;81.70;;;;;;5029537;28;20620;-67
2023/02/13 05:41:15;;;;;;;7.50;3.50;;;9.10;81.70;;;;;;5028920;28;20091;-67
2023/02/13 05:43:40;;;;;;;6.00;3.00;;;9.10;81.70;;;;;;5029342;28;20022;-67
2023/02/13 05:46:08;;;;;;;6.30;3.28;;;9.10;81.70;;;;;;5029397;28;20037;-66
2023/02/13 05:48:34;;;;;;;5.32;2.40;;;9.20;81.70;;;;;;5029501;28;20075;-67
2023/02/13 05:50:59;;;;;;;7.68;3.00;;;9.20;81.60;;;;;;5028896;28;20029;-67
2023/02/13 05:53:25;;;;;;;6.70;3.03;;;9.20;81.50;;;;;;5028823;28;20420;-67
2023/02/13 05:55:51;;;;;;;8.85;3.95;;;9.10;81.60;;;;;;5029384;28;20053;-67
2023/02/13 05:58:20;;;;;;;7.68;3.38;;;9.10;81.60;;;;;;5029340;28;20017;-67
2023/02/13 06:00:46;;;;;;;8.75;3.42;;;9.10;81.70;;;;;;5029061;28;20431;-67
2023/02/13 06:03:12;;;;;;;8.43;3.67;;;9.00;81.70;;;;;;5028949;28;20035;-67
2023/02/13 06:05:38;;;;;;;6.57;3.30;;;9.00;81.80;;;;;;5025769;28;20116;-67
2023/02/13 06:08:03;;;;;;;4.72;2.20;;;9.10;81.80;;;;;;5027646;28;20026;-67
2023/02/13 06:10:29;;;;;;;7.20;3.08;;;9.10;81.70;;;;;;5029015;28;20682;-67
2023/02/13 06:12:54;;;;;;;8.60;3.92;;;9.10;81.70;;;;;;5027900;28;20026;-67
2023/02/13 06:15:20;;;;;;;7.15;3.10;;;9.10;81.70;;;;;;5028858;28;20566;-67
2023/02/13 06:17:46;;;;;;;7.82;3.67;;;9.10;81.70;;;;;;5026934;28;20021;-68
2023/02/13 06:20:11;;;;;;;7.57;3.40;;;9.10;81.70;;;;;;5029244;28;20029;-67
2023/02/13 06:22:37;;;;;;;8.77;3.88;;;9.10;81.70;;;;;;5029695;28;20053;-67
2023/02/13 06:25:03;;;;;;;9.75;4.05;;;9.10;81.80;;;;;;5029216;28;20032;-67
2023/02/13 06:27:28;;;;;;;7.20;3.20;;;9.10;82.00;;;;;;5028819;28;20022;-67
2023/02/13 06:29:54;;;;;;;8.88;3.65;;;9.10;82.00;;;;;;5029521;28;20044;-67
2023/02/13 06:32:19;;;;;;;9.32;4.30;;;9.00;82.00;;;;;;5028416;28;20037;-67
2023/02/13 06:34:45;;;;;;;8.45;3.67;;;9.10;82.10;;;;;;5028261;28;20484;-67
2023/02/13 06:37:11;;;;;;;9.10;3.88;;;9.00;82.10;;;;;;5028507;28;20044;-68
2023/02/13 06:39:36;;;;;;;7.22;3.55;;;9.10;82.10;;;;;;5028922;28;20032;-67
2023/02/13 06:42:02;;;;;;;6.13;3.15;;;9.00;82.00;;;;;;5028933;28;20025;-67
2023/02/13 06:44:27;;;;;;;7.38;3.53;;;9.10;82.10;;;;;;5027649;28;20087;-67
2023/02/13 06:46:53;;;;;;;9.57;3.95;;;9.10;82.00;;;;;;5026631;28;20044;-67
2023/02/13 06:49:18;;;;;;;10.30;3.75;;;9.10;82.10;;;;;;5026767;28;20104;-67
2023/02/13 06:51:44;;;;;;;8.35;3.30;;;9.10;82.00;;;;;;5028346;28;20111;-67
2023/02/13 06:54:09;;;;;;;7.20;3.22;;;9.10;82.00;;;;;;5026892;28;20034;-68
2023/02/13 06:56:35;;;;;;;7.30;3.47;;;9.10;82.00;;;;;;5028558;28;20022;-67
2023/02/13 06:59:00;;;;;;;7.47;3.65;;;9.10;82.10;;;;;;5028690;28;20032;-67
2023/02/13 07:01:26;;;;;;;8.45;3.60;;;9.10;82.10;;;;;;5025947;28;20040;-67
2023/02/13 07:03:52;;;;;;;7.28;3.10;;;9.10;82.10;;;;;;5028444;28;20024;-67
2023/02/13 07:06:18;;;;;;;6.93;2.90;;;9.20;82.10;;;;;;5029854;28;20025;-69
2023/02/13 07:08:44;;;;;;;5.68;3.33;;;9.20;82.00;;;;;;5033277;28;20026;-67
2023/02/13 07:11:17;;;;;;;5.88;3.15;;;9.20;82.00;;;;;;5029069;28;20094;-67
2023/02/13 07:13:42;;;;;;;8.77;4.00;;;9.20;81.90;;;;;;5025051;28;20026;-67
2023/02/13 07:16:08;;;;;;;9.80;4.32;;;9.10;81.90;;;;;;5027287;28;20041;-67
2023/02/13 07:18:34;;;;;;;14.57;5.13;;;9.10;82.10;;;;;;5028470;28;20037;-67
2023/02/13 07:20:59;;;;;;;10.75;4.65;;;9.10;82.30;;;;;;5025812;28;20032;-67
2023/02/13 07:23:25;;;;;;;8.60;3.90;;;9.10;82.40;;;;;;5029780;28;20030;-67
2023/02/13 07:25:50;;;;;;;11.02;4.70;;;9.10;82.30;;;;;;5032897;28;20038;-67
2023/02/13 07:28:16;;;;;;;13.07;4.82;;;9.10;82.30;;;;;;5032670;28;20049;-67
2023/02/13 07:30:41;;;;;;;11.88;4.78;;;9.10;82.40;;;;;;5027391;28;20033;-67
2023/02/13 07:33:08;;;;;;;15.57;5.63;;;9.10;82.60;;;;;;5013134;28;20030;-67
2023/02/13 07:35:35;;;;;;;14.02;5.40;;;9.10;82.80;;;;;;5030990;28;20010;-67
2023/02/13 07:38:00;;;;;;;12.70;5.88;;;9.00;82.90;;;;;;5032899;28;20021;-67
2023/02/13 07:40:26;;;;;;;12.52;5.57;;;9.00;83.10;;;;;;5028118;28;20113;-67
2023/02/13 07:42:52;;;;;;;9.40;4.28;;;9.00;83.20;;;;;;5030055;28;20025;-67
2023/02/13 07:45:17;;;;;;;10.95;5.32;;;9.00;83.20;;;;;;5031361;28;20028;-67
2023/02/13 07:47:43;;;;;;;10.32;4.55;;;9.00;83.20;;;;;;5032318;28;20032;-67
2023/02/13 07:50:09;;;;;;;13.13;5.93;;;9.10;83.20;;;;;;5028699;28;20029;-67
2023/02/13 07:52:36;;;;;;;12.85;5.53;;;9.10;83.30;;;;;;5028785;28;20029;-67
2023/02/13 07:55:02;;;;;;;13.30;5.25;;;9.00;83.40;;;;;;5031712;28;20117;-67
2023/02/13 07:57:30;;;;;;;16.20;6.70;;;9.00;83.40;;;;;;5026824;28;20025;-67
2023/02/13 07:59:55;;;;;;;10.88;5.43;;;9.00;83.40;;;;;;5027144;28;20398;-67
2023/02/13 08:02:21;;;;;;;14.43;5.18;;;9.10;83.50;;;;;;5033314;28;20021;-67
2023/02/13 08:04:46;;;;;;;10.25;4.72;;;9.10;83.50;;;;;;5032163;28;20033;-67
2023/02/13 08:07:14;;;;;;;16.23;7.10;;;9.10;83.40;;;;;;5032528;28;20030;-67
2023/02/13 08:12:24;;;;;;;10.90;4.88;;;9.10;83.40;;;;;;5026551;28;20439;-67
2023/02/13 08:14:49;;;;;;;12.02;5.05;;;9.10;83.40;;;;;;5032200;28;20049;-67
2023/02/13 08:17:15;;;;;;;13.02;6.13;;;9.10;83.40;;;;;;5030502;28;20040;-67
2023/02/13 08:19:40;;;;;;;9.70;3.90;;;9.10;83.50;;;;;;5031721;28;20026;-67
2023/02/13 08:22:06;;;;;;;10.43;4.82;;;9.20;83.40;;;;;;5023764;28;20107;-67
2023/02/13 08:24:32;;;;;;;14.35;5.57;;;9.20;83.30;;;;;;5012759;28;20026;-67
2023/02/13 08:26:58;;;;;;;13.15;5.28;;;9.20;83.30;;;;;;5025038;28;20025;-67
2023/02/13 08:29:23;;;;;;;11.10;5.10;;;9.30;83.30;;;;;;5026495;28;20547;-67
2023/02/13 08:31:49;;;;;;;13.85;5.75;;;9.30;83.00;;;;;;5030986;28;20075;-67
2023/02/13 08:34:14;;;;;;;10.55;4.60;;;9.30;83.10;;;;;;5031475;28;20025;-67
2023/02/13 08:36:40;;;;;;;13.93;5.57;;;9.40;83.10;;;;;;5028253;28;20262;-67
2023/02/13 08:39:05;;;;;;;10.25;4.72;;;9.40;83.10;;;;;;5028534;28;20018;-67
2023/02/13 08:41:31;;;;;;;14.93;6.55;;;9.40;83.10;;;;;;5030426;28;20036;-67
2023/02/13 08:43:57;;;;;;;13.00;5.53;;;9.40;83.10;;;;;;5029591;28;20088;-67
2023/02/13 08:46:22;;;;;;;9.98;4.70;;;9.50;83.20;;;;;;5029267;28;20060;-67
2023/02/13 08:48:48;;;;;;;11.18;5.32;;;9.60;83.10;;;;;;5030731;28;20021;-68
2023/02/13 08:51:14;;;;;;;12.77;5.45;;;9.60;83.00;;;;;;5030216;28;20539;-68
2023/02/13 08:53:41;;;;;;;15.07;6.38;;;9.60;82.90;;;;;;5030560;28;20045;-68
2023/02/13 08:56:07;;;;;;;11.80;5.30;;;9.70;82.90;;;;;;5030183;28;20698;-67
2023/02/13 08:58:32;;;;;;;13.40;5.65;;;9.70;82.80;;;;;;5031419;28;20032;-67
2023/02/13 09:00:58;;;;;;;13.65;5.63;;;9.70;82.90;;;;;;5030424;28;20021;-67
2023/02/13 09:03:24;;;;;;;10.80;4.65;;;9.70;82.80;;;;;;5026339;28;20022;-69
2023/02/13 09:05:49;;;;;;;14.73;6.53;;;9.70;82.70;;;;;;5029278;28;20025;-68
2023/02/13 09:08:15;;;;;;;13.90;6.28;;;9.70;82.70;;;;;;5027772;28;20056;-66
2023/02/13 09:10:45;;;;;;;17.02;6.80;;;9.80;82.80;;;;;;5031945;28;20029;-66
2023/02/13 09:13:11;;;;;;;16.63;7.28;;;9.70;82.90;;;;;;5026466;28;20132;-66
2023/02/13 09:15:40;;;;;;;15.45;7.05;;;9.70;83.00;;;;;;5027253;28;20575;-66
2023/02/13 09:18:06;;;;;;;12.38;6.50;;;9.80;83.10;;;;;;5024612;28;20056;-66
2023/02/13 09:20:32;;;;;;;13.02;5.00;;;9.70;83.10;;;;;;5022720;28;20083;-67
2023/02/13 09:22:57;;;;;;;10.63;4.80;;;9.80;83.10;;;;;;5020721;28;20025;-67
2023/02/13 09:25:23;;;;;;;15.13;6.30;;;9.90;82.90;;;;;;5029774;28;20029;-66
2023/02/13 09:27:48;;;;;;;12.82;5.82;;;9.90;82.80;;;;;;5021911;28;20022;-67
2023/02/13 09:30:21;;;;;;;9.75;4.72;;;9.90;82.70;;;;;;5021083;28;20104;-67
2023/02/13 09:32:49;;;;;;;13.82;5.60;;;10.00;82.70;;;;;;5024983;28;20034;-68
2023/02/13 09:35:15;;;;;;;10.38;4.68;;;10.00;82.60;;;;;;5027199;28;20030;-67
2023/02/13 09:37:40;;;;;;;9.27;4.55;;;10.10;82.60;;;;;;5030560;28;20557;-67
2023/02/13 09:40:31;;;;;;;14.02;6.63;;;10.10;82.40;;;;;;5027838;28;20029;-67
2023/02/13 09:43:06;;;;;;;16.65;7.03;;;10.10;82.40;;;;;;5028481;28;20040;-68
2023/02/13 09:45:33;;;;;;;15.35;6.00;;;10.00;82.60;;;;;;5024045;28;20022;-67
2023/02/13 09:47:59;;;;;;;13.10;5.90;;;10.00;82.80;;;;;;5028144;28;20782;-68
2023/02/13 09:50:29;;;;;;;16.35;6.75;;;10.10;82.80;;;;;;5029498;28;20022;-67
2023/02/13 09:52:57;;;;;;;13.68;6.32;;;10.10;82.60;;;;;;5024780;28;20021;-67
2023/02/13 09:55:26;;;;;;;14.73;6.60;;;10.20;82.60;;;;;;5026239;28;20372;-67
2023/02/13 09:58:02;;;;;;;14.43;6.65;;;10.20;83.20;;;;;;5025279;28;20507;-67
2023/02/13 10:00:43;;;;;;;13.73;6.32;;;10.20;82.40;;;;;;5027250;28;20480;-67
2023/02/13 10:03:26;;;;;;;13.27;5.43;;;10.30;82.30;;;;;;5026583;28;20626;-67
2023/02/13 10:06:03;;;;;;;11.85;5.40;;;10.30;82.20;;;;;;5026236;28;20511;-67
2023/02/13 10:08:45;;;;;;;14.07;5.65;;;10.40;82.10;;;;;;5048822;28;20017;-67
2023/02/13 10:11:36;;;;;;;10.32;4.85;;;10.40;81.90;;;;;;5025547;28;20022;-67
2023/02/13 10:14:13;;;;;;;10.65;5.00;;;10.40;81.80;;;;;;5025611;28;20118;-67
2023/02/13 10:17:05;;;;;;;13.55;4.88;;;10.50;81.80;;;;;;5026763;28;20026;-67
2023/02/13 10:19:38;;;;;;;10.68;5.10;;;10.60;81.70;;;;;;5029457;28;20033;-67
2023/02/13 10:22:17;;;;;;;11.75;5.60;;;10.60;81.40;;;;;;5027992;28;20112;-67
2023/02/13 10:24:56;;;;;;;14.45;6.30;;;10.60;81.50;;;;;;5028746;28;20010;-67
2023/02/13 10:27:26;;;;;;;15.73;6.25;;;10.60;81.10;;;;;;5027657;28;20036;-67
2023/02/13 10:30:16;;;;;;;11.25;5.40;;;10.60;81.20;;;;;;5027001;28;20056;-67
2023/02/13 10:33:10;;;;;;;10.07;4.60;;;10.70;81.20;;;;;;5024240;28;20033;-67
2023/02/13 10:35:37;;;;;;;13.55;6.00;;;10.90;81.00;;;;;;5022590;28;20031;-67
2023/02/13 10:38:16;;;;;;;11.27;5.75;;;10.90;80.60;;;;;;5028147;28;20033;-68
2023/02/13 10:41:07;;;;;;;9.00;4.47;;;11.00;80.50;;;;;;5027839;28;20029;-67
2023/02/13 10:44:14;;;;;;;10.93;4.97;;;11.00;80.30;;;;;;5024187;28;20036;-67
2023/02/13 10:46:54;;;;;;;11.20;5.03;;;11.00;80.40;;;;;;5028594;28;20021;-67
2023/02/13 10:49:38;;;;;;;7.57;3.78;;;11.10;80.80;;;;;;5029438;28;20022;-67
2023/02/13 10:52:26;;;;;;;8.80;3.85;;;11.10;80.10;;;;;;5029447;28;20037;-67
2023/02/13 10:55:21;;;;;;;13.45;6.07;;;11.20;79.90;;;;;;5022203;28;20045;-67
2023/02/13 10:58:00;;;;;;;15.07;6.07;;;11.10;80.00;;;;;;5029201;28;20061;-67
2023/02/13 11:00:45;;;;;;;12.75;6.60;;;11.00;79.90;;;;;;5034106;28;20480;-67
2023/02/13 11:03:25;;;;;;;15.93;6.75;;;10.90;80.20;;;;;;5034253;28;20663;-67
2023/02/13 11:05:52;;;;;;;11.43;5.10;;;10.90;80.30;;;;;;5034256;28;20029;-67
2023/02/13 11:08:46;;;;;;;12.43;5.43;;;11.00;80.40;;;;;;5033848;28;20092;-67
2023/02/13 11:11:47;;;;;;;8.52;4.55;;;11.10;80.30;;;;;;5033539;28;20500;-67
2023/02/13 11:14:18;;;;;;;10.13;4.35;;;11.20;80.00;;;;;;5030893;28;20053;-66
2023/02/13 11:16:46;;;;;;;10.77;5.00;;;11.20;79.80;;;;;;5033079;28;20052;-67
2023/02/13 11:19:27;;;;;;;11.48;5.80;;;11.20;79.80;;;;;;5033567;28;20304;-67
2023/02/13 11:21:58;;;;;;;11.25;5.30;;;11.30;79.80;;;;;;5034105;28;20033;-67
2023/02/13 11:24:26;;;;;;;9.68;4.60;;;11.30;79.50;;;;;;5033695;28;20468;-67
2023/02/13 11:26:59;;;;;;;11.85;5.72;;;11.20;79.30;;;;;;5033305;28;20498;-67
2023/02/13 11:29:33;;;;;;;11.35;5.03;;;11.10;79.60;;;;;;5032591;28;20453;-67
2023/02/13 11:32:06;;;;;;;10.77;5.47;;;11.20;79.60;;;;;;5033177;28;20084;-67
2023/02/13 11:34:33;;;;;;;13.23;6.20;;;11.10;79.50;;;;;;5033311;28;20021;-67
2023/02/13 11:37:25;;;;;;;12.40;5.88;;;11.10;79.40;;;;;;5033172;28;20035;-67
2023/02/13 11:39:52;;;;;;;;;;;11.10;79.50;;;;;;5052090;28;20033;-67
2023/02/13 11:42:36;;;;;;;8.90;4.65;;;11.20;79.60;;;;;;5053097;28;19904;-67
2023/02/13 11:45:04;;;;;;;8.10;4.43;;;11.30;79.40;;;;;;5029835;28;20029;-67
2023/02/13 11:47:41;;;;;;;12.07;5.15;;;11.40;79.20;;;;;;5032839;28;20048;-67
2023/02/13 11:50:29;;;;;;;11.23;5.10;;;11.40;79.10;;;;;;5029983;28;20036;-67
2023/02/13 11:53:18;;;;;;;10.60;4.47;;;11.60;78.90;;;;;;5028190;28;20499;-67
2023/02/13 11:55:45;;;;;;;9.55;4.30;;;11.70;78.50;;;;;;5031331;28;20029;-66
2023/02/13 11:58:10;;;;;;;10.45;5.00;;;11.90;78.50;;;;;;5028011;28;20030;-67
2023/02/13 12:00:40;;;;;;;10.43;5.25;;;12.00;78.10;;;;;;5028512;28;20032;-67
2023/02/13 12:03:26;;;;;;;10.48;4.53;;;12.00;77.90;;;;;;5030155;28;20014;-67
2023/02/13 12:06:02;;;;;;;9.10;4.68;;;12.10;78.30;;;;;;5030072;28;20045;-67
2023/02/13 12:08:30;;;;;;;16.52;7.97;;;12.50;78.30;;;;;;5019871;28;20022;-67
2023/02/13 12:10:58;;;;;;;14.05;5.53;;;14.20;75.10;;;;;;5022569;28;20480;-67
2023/02/13 12:13:37;;;;;;;10.80;5.65;;;15.80;70.20;;;;;;5035381;28;20017;-67
2023/02/13 12:16:16;;;;;;;9.25;4.47;;;16.70;65.20;;;;;;5032366;28;20365;-67
2023/02/13 12:18:48;;;;;;;13.35;6.53;;;16.60;64.50;;;;;;5034279;28;20427;-67
2023/02/13 12:21:25;;;;;;;10.77;5.32;;;16.30;64.60;;;;;;5030270;28;20022;-67
2023/02/13 12:24:10;;;;;;;9.85;5.15;;;16.20;64.60;;;;;;5029980;28;20061;-67
2023/02/13 12:26:42;;;;;;;10.68;5.50;;;16.20;65.10;;;;;;5025014;28;20021;-67
2023/02/13 12:29:44;;;;;;;11.60;5.65;;;15.20;66.10;;;;;;5030593;28;20026;-67
2023/02/13 12:32:21;;;;;;;13.13;6.63;;;14.10;69.70;;;;;;5021653;28;20025;-67
2023/02/13 12:35:07;;;;;;;15.60;7.20;;;13.40;71.40;;;;;;5029739;28;20091;-66
2023/02/13 12:37:39;;;;;;;12.50;6.70;;;12.80;72.50;;;;;;5026783;28;20026;-67
2023/02/13 12:40:26;;;;;;;12.02;5.93;;;12.50;75.00;;;;;;5043134;28;20113;-67
2023/02/13 12:42:54;;;;;;;12.43;6.07;;;12.70;75.60;;;;;;5021423;28;20030;-67
2023/02/13 12:46:01;;;;;;;13.45;6.78;;;12.60;75.50;;;;;;5028252;28;20032;-66
2023/02/13 12:48:36;;;;;;;15.23;7.03;;;12.60;75.10;;;;;;5029710;28;20034;-67
2023/02/13 12:51:17;;;;;;;15.93;8.02;;;12.60;75.10;;;;;;5019015;28;20021;-67
2023/02/13 12:53:48;;;;;;;14.10;7.05;;;12.60;75.20;;;;;;5020081;28;20057;-67
2023/02/13 12:56:35;;;;;;;15.93;7.50;;;12.40;75.70;;;;;;5026333;28;20400;-66
2023/02/13 12:59:08;;;;;;;12.93;7.05;;;12.40;75.60;;;;;;5031804;28;20026;-67
2023/02/13 13:01:52;;;;;;;10.35;5.45;;;12.40;76.20;;;;;;5030241;28;20384;-66
2023/02/13 13:04:58;;;;;;;10.57;5.43;;;12.60;76.30;;;;;;5023033;28;20112;-67
2023/02/13 13:07:29;;;;;;;12.00;5.72;;;12.80;75.20;;;;;;5027694;28;20091;-67
2023/02/13 13:10:25;;;;;;;10.75;4.97;;;12.70;75.40;;;;;;5026385;28;20071;-67
2023/02/13 13:13:14;;;;;;;12.20;6.57;;;12.80;75.70;;;;;;5025389;28;20033;-67
2023/02/13 13:15:56;;;;;;;14.50;8.38;;;13.00;75.80;;;;;;5023727;28;20433;-67
2023/02/13 13:18:48;;;;;;;13.38;6.68;;;13.00;74.80;;;;;;5029982;28;20052;-67
2023/02/13 13:21:59;;;;;;;13.05;6.57;;;13.10;74.70;;;;;;5026464;28;20112;-66
2023/02/13 13:24:57;;;;;;;9.38;5.13;;;13.20;75.30;;;;;;5029069;28;20508;-67
2023/02/13 13:27:30;;;;;;;13.82;5.72;;;13.30;75.10;;;;;;5022346;28;20025;-67
2023/02/13 13:30:23;;;;;;;11.88;6.32;;;13.40;74.90;;;;;;5020019;28;20030;-67
2023/02/13 13:32:55;;;;;;;10.77;5.72;;;13.50;74.50;;;;;;5018642;28;20119;-66
2023/02/13 13:35:21;;;;;;;10.75;5.15;;;13.40;74.20;;;;;;5028344;28;20043;-67
2023/02/13 13:38:07;;;;;;;10.55;5.47;;;13.50;74.50;;;;;;5023289;28;20021;-66
2023/02/13 13:40:55;;;;;;;11.60;5.88;;;13.60;74.40;;;;;;5019951;28;20046;-67
2023/02/13 13:43:45;;;;;;;11.40;5.35;;;13.70;74.30;;;;;;5020577;28;20034;-67
2023/02/13 13:46:20;;;;;;;10.73;5.20;;;13.60;73.80;;;;;;5020641;28;20536;-67
2023/02/13 13:48:53;;;;;;;8.80;4.15;;;13.60;73.90;;;;;;5025427;28;20025;-67
2023/02/13 13:51:19;;;;;;;11.93;6.53;;;13.70;74.20;;;;;;5028206;28;20069;-67
2023/02/13 13:54:06;;;;;;;11.90;5.20;;;13.70;73.80;;;;;;5030917;28;20119;-67
2023/02/13 13:56:53;;;;;;;13.27;6.65;;;13.80;73.40;;;;;;5020719;28;20037;-67
2023/02/13 13:59:50;;;;;;;11.38;5.95;;;13.80;73.90;;;;;;5020608;28;20034;-67